sensor_id;sensor_type;location;lat;lon;timestamp;temperature;humidity
65050;DHT22;52090;51.224;-2.328;2023-01-24T00:00:47;0.40;93.40
65050;DHT22;52090;51.224;-2.328;2023-01-24T00:04:30;0.40;93.40
65050;DHT22;52090;51.224;-2.328;2023-01-24T00:08:22;0.40;93.40
65050;DHT22;52090;51.224;-2.328;2023-01-24T00:12:23;0.40;93.40
65050;DHT22;52090;51.224;-2.328;2023-01-24T00:16:22;0.40;93.40
65050;DHT22;52090;51.224;-2.328;2023-01-24T00:20:17;0.30;93.50
65050;DHT22;52090;51.224;-2.328;2023-01-24T00:23:59;0.30;93.50
65050;DHT22;52090;51.224;-2.328;2023-01-24T00:27:41;0.30;93.50
65050;DHT22;52090;51.224;-2.328;2023-01-24T00:31:24;0.20;93.40
65050;DHT22;52090;51.224;-2.328;2023-01-24T00:35:07;0.20;93.30
65050;DHT22;52090;51.224;-2.328;2023-01-24T00:38:52;0.10;93.30
65050;DHT22;52090;51.224;-2.328;2023-01-24T00:42:34;0.10;93.30
65050;DHT22;52090;51.224;-2.328;2023-01-24T00:46:16;0.10;93.40
65050;DHT22;52090;51.224;-2.328;2023-01-24T00:49:58;0.10;93.40
65050;DHT22;52090;51.224;-2.328;2023-01-24T00:53:43;0.10;93.30
65050;DHT22;52090;51.224;-2.328;2023-01-24T00:57:29;0.20;93.30
65050;DHT22;52090;51.224;-2.328;2023-01-24T01:01:15;0.20;93.30
65050;DHT22;52090;51.224;-2.328;2023-01-24T01:04:58;0.10;93.20
65050;DHT22;52090;51.224;-2.328;2023-01-24T01:08:41;0.10;93.20
65050;DHT22;52090;51.224;-2.328;2023-01-24T01:12:24;0.10;93.30
65050;DHT22;52090;51.224;-2.328;2023-01-24T01:16:12;0.10;93.30
65050;DHT22;52090;51.224;-2.328;2023-01-24T01:19:56;0.10;93.30
65050;DHT22;52090;51.224;-2.328;2023-01-24T01:23:43;0.10;93.20
65050;DHT22;52090;51.224;-2.328;2023-01-24T01:27:26;0.20;93.20
65050;DHT22;52090;51.224;-2.328;2023-01-24T01:31:08;0.20;93.10
65050;DHT22;52090;51.224;-2.328;2023-01-24T01:34:52;0.20;92.90
65050;DHT22;52090;51.224;-2.328;2023-01-24T01:38:35;0.20;92.90
65050;DHT22;52090;51.224;-2.328;2023-01-24T01:42:17;0.30;92.80
65050;DHT22;52090;51.224;-2.328;2023-01-24T01:53:49;0.10;92.80
65050;DHT22;52090;51.224;-2.328;2023-01-24T01:57:35;0.10;92.90
65050;DHT22;52090;51.224;-2.328;2023-01-24T02:01:19;0.10;92.90
65050;DHT22;52090;51.224;-2.328;2023-01-24T02:05:14;0.00;92.80
65050;DHT22;52090;51.224;-2.328;2023-01-24T02:08:57;0.00;92.80
65050;DHT22;52090;51.224;-2.328;2023-01-24T02:12:45;0.00;92.80
65050;DHT22;52090;51.224;-2.328;2023-01-24T02:16:31;0.00;93.00
65050;DHT22;52090;51.224;-2.328;2023-01-24T02:24:31;-0.10;92.50
65050;DHT22;52090;51.224;-2.328;2023-01-24T02:28:15;-0.10;92.50
65050;DHT22;52090;51.224;-2.328;2023-01-24T02:32:01;-0.10;92.60
65050;DHT22;52090;51.224;-2.328;2023-01-24T02:35:47;-0.20;92.50
65050;DHT22;52090;51.224;-2.328;2023-01-24T02:43:30;-0.20;92.40
65050;DHT22;52090;51.224;-2.328;2023-01-24T02:47:13;-0.20;92.40
65050;DHT22;52090;51.224;-2.328;2023-01-24T02:50:54;-0.20;92.50
65050;DHT22;52090;51.224;-2.328;2023-01-24T02:54:55;-0.20;92.40
65050;DHT22;52090;51.224;-2.328;2023-01-24T02:58:36;-0.30;92.40
65050;DHT22;52090;51.224;-2.328;2023-01-24T03:02:18;-0.30;92.30
65050;DHT22;52090;51.224;-2.328;2023-01-24T03:06:00;-0.30;92.30
65050;DHT22;52090;51.224;-2.328;2023-01-24T03:09:42;-0.30;92.30
65050;DHT22;52090;51.224;-2.328;2023-01-24T03:13:30;-0.40;92.30
65050;DHT22;52090;51.224;-2.328;2023-01-24T03:17:30;-0.40;92.30
65050;DHT22;52090;51.224;-2.328;2023-01-24T03:21:31;-0.40;92.20
65050;DHT22;52090;51.224;-2.328;2023-01-24T03:25:31;-0.40;92.20
65050;DHT22;52090;51.224;-2.328;2023-01-24T03:29:31;-0.40;92.40
65050;DHT22;52090;51.224;-2.328;2023-01-24T03:33:32;-0.40;92.40
65050;DHT22;52090;51.224;-2.328;2023-01-24T03:37:32;-0.40;92.50
65050;DHT22;52090;51.224;-2.328;2023-01-24T03:41:33;-0.30;92.60
65050;DHT22;52090;51.224;-2.328;2023-01-24T03:45:26;-0.30;92.50
65050;DHT22;52090;51.224;-2.328;2023-01-24T03:49:08;-0.30;92.20
65050;DHT22;52090;51.224;-2.328;2023-01-24T03:52:50;-0.40;92.30
65050;DHT22;52090;51.224;-2.328;2023-01-24T03:56:32;-0.40;92.30
65050;DHT22;52090;51.224;-2.328;2023-01-24T04:00:14;-0.40;92.50
65050;DHT22;52090;51.224;-2.328;2023-01-24T04:03:56;-0.40;92.70
65050;DHT22;52090;51.224;-2.328;2023-01-24T04:07:38;-0.30;92.80
65050;DHT22;52090;51.224;-2.328;2023-01-24T04:11:19;-0.30;92.80
65050;DHT22;52090;51.224;-2.328;2023-01-24T04:15:01;-0.30;92.80
65050;DHT22;52090;51.224;-2.328;2023-01-24T04:18:44;-0.20;92.90
65050;DHT22;52090;51.224;-2.328;2023-01-24T04:22:25;-0.20;92.90
65050;DHT22;52090;51.224;-2.328;2023-01-24T04:26:07;-0.10;92.90
65050;DHT22;52090;51.224;-2.328;2023-01-24T04:29:49;-0.10;92.80
65050;DHT22;52090;51.224;-2.328;2023-01-24T04:33:31;0.00;92.70
65050;DHT22;52090;51.224;-2.328;2023-01-24T04:37:12;0.00;92.60
65050;DHT22;52090;51.224;-2.328;2023-01-24T04:40:59;-0.10;92.40
65050;DHT22;52090;51.224;-2.328;2023-01-24T04:44:41;-0.10;92.30
65050;DHT22;52090;51.224;-2.328;2023-01-24T04:48:23;-0.10;92.40
65050;DHT22;52090;51.224;-2.328;2023-01-24T04:52:05;-0.10;92.20
65050;DHT22;52090;51.224;-2.328;2023-01-24T04:55:46;-0.20;92.00
65050;DHT22;52090;51.224;-2.328;2023-01-24T04:59:28;-0.30;91.90
65050;DHT22;52090;51.224;-2.328;2023-01-24T05:03:10;-0.40;91.90
65050;DHT22;52090;51.224;-2.328;2023-01-24T05:06:52;-0.50;91.90
65050;DHT22;52090;51.224;-2.328;2023-01-24T05:10:34;-0.60;92.00
65050;DHT22;52090;51.224;-2.328;2023-01-24T05:14:15;-0.70;92.00
65050;DHT22;52090;51.224;-2.328;2023-01-24T05:17:57;-0.80;91.90
65050;DHT22;52090;51.224;-2.328;2023-01-24T05:21:39;-0.80;92.00
65050;DHT22;52090;51.224;-2.328;2023-01-24T05:25:21;-0.80;92.00
65050;DHT22;52090;51.224;-2.328;2023-01-24T05:29:03;-0.90;92.10
65050;DHT22;52090;51.224;-2.328;2023-01-24T05:32:45;-0.90;92.20
65050;DHT22;52090;51.224;-2.328;2023-01-24T05:36:27;-0.90;92.30
65050;DHT22;52090;51.224;-2.328;2023-01-24T05:40:09;-0.90;92.30
65050;DHT22;52090;51.224;-2.328;2023-01-24T05:43:51;-0.90;92.40
65050;DHT22;52090;51.224;-2.328;2023-01-24T05:47:33;-0.80;92.50
65050;DHT22;52090;51.224;-2.328;2023-01-24T05:51:17;-0.80;92.40
65050;DHT22;52090;51.224;-2.328;2023-01-24T05:54:59;-0.80;92.30
65050;DHT22;52090;51.224;-2.328;2023-01-24T05:58:42;-0.80;92.40
65050;DHT22;52090;51.224;-2.328;2023-01-24T06:02:26;-0.80;92.40
65050;DHT22;52090;51.224;-2.328;2023-01-24T06:06:10;-0.70;92.50
65050;DHT22;52090;51.224;-2.328;2023-01-24T06:09:52;-0.70;92.40
65050;DHT22;52090;51.224;-2.328;2023-01-24T06:13:34;-0.70;92.30
65050;DHT22;52090;51.224;-2.328;2023-01-24T06:17:16;-0.70;92.20
65050;DHT22;52090;51.224;-2.328;2023-01-24T06:21:03;-0.80;92.20
65050;DHT22;52090;51.224;-2.328;2023-01-24T06:24:45;-0.80;92.20
65050;DHT22;52090;51.224;-2.328;2023-01-24T06:28:27;-0.80;92.20
65050;DHT22;52090;51.224;-2.328;2023-01-24T06:39:52;-0.80;92.30
65050;DHT22;52090;51.224;-2.328;2023-01-24T06:43:34;-0.80;92.20
65050;DHT22;52090;51.224;-2.328;2023-01-24T06:47:16;-0.80;92.30
65050;DHT22;52090;51.224;-2.328;2023-01-24T06:50:59;-0.80;92.30
65050;DHT22;52090;51.224;-2.328;2023-01-24T06:54:40;-0.70;92.20
65050;DHT22;52090;51.224;-2.328;2023-01-24T06:58:22;-0.70;92.20
65050;DHT22;52090;51.224;-2.328;2023-01-24T07:02:04;-0.70;92.20
65050;DHT22;52090;51.224;-2.328;2023-01-24T07:05:47;-0.70;92.30
65050;DHT22;52090;51.224;-2.328;2023-01-24T07:09:29;-0.70;92.40
65050;DHT22;52090;51.224;-2.328;2023-01-24T07:13:10;-0.70;92.50
65050;DHT22;52090;51.224;-2.328;2023-01-24T07:16:52;-0.60;92.50
65050;DHT22;52090;51.224;-2.328;2023-01-24T07:20:37;-0.60;92.40
65050;DHT22;52090;51.224;-2.328;2023-01-24T07:24:20;-0.50;92.40
65050;DHT22;52090;51.224;-2.328;2023-01-24T07:28:03;-0.60;92.30
65050;DHT22;52090;51.224;-2.328;2023-01-24T07:31:45;-0.60;92.40
65050;DHT22;52090;51.224;-2.328;2023-01-24T07:35:29;-0.60;92.50
65050;DHT22;52090;51.224;-2.328;2023-01-24T07:39:11;-0.60;92.90
65050;DHT22;52090;51.224;-2.328;2023-01-24T07:42:52;-0.60;93.10
65050;DHT22;52090;51.224;-2.328;2023-01-24T07:46:35;-0.50;93.10
65050;DHT22;52090;51.224;-2.328;2023-01-24T07:50:17;-0.40;93.20
65050;DHT22;52090;51.224;-2.328;2023-01-24T07:53:59;-0.40;93.40
65050;DHT22;52090;51.224;-2.328;2023-01-24T07:57:40;-0.30;93.50
65050;DHT22;52090;51.224;-2.328;2023-01-24T08:01:23;-0.30;93.50
65050;DHT22;52090;51.224;-2.328;2023-01-24T08:05:05;-0.30;93.50
65050;DHT22;52090;51.224;-2.328;2023-01-24T08:08:47;-0.30;93.50
65050;DHT22;52090;51.224;-2.328;2023-01-24T08:12:29;-0.30;93.70
65050;DHT22;52090;51.224;-2.328;2023-01-24T08:16:11;-0.30;93.80
65050;DHT22;52090;51.224;-2.328;2023-01-24T08:19:53;-0.30;94.00
65050;DHT22;52090;51.224;-2.328;2023-01-24T08:23:38;-0.20;94.20
65050;DHT22;52090;51.224;-2.328;2023-01-24T08:27:20;-0.10;94.20
65050;DHT22;52090;51.224;-2.328;2023-01-24T08:31:01;-0.10;94.30
65050;DHT22;52090;51.224;-2.328;2023-01-24T08:34:43;-0.10;94.30
65050;DHT22;52090;51.224;-2.328;2023-01-24T08:38:25;-0.10;94.50
65050;DHT22;52090;51.224;-2.328;2023-01-24T08:42:08;0.00;94.60
65050;DHT22;52090;51.224;-2.328;2023-01-24T08:45:53;0.00;94.60
65050;DHT22;52090;51.224;-2.328;2023-01-24T08:49:36;0.00;94.70
65050;DHT22;52090;51.224;-2.328;2023-01-24T08:53:18;0.10;94.80
65050;DHT22;52090;51.224;-2.328;2023-01-24T08:57:00;0.10;94.90
65050;DHT22;52090;51.224;-2.328;2023-01-24T09:00:42;0.10;94.80
65050;DHT22;52090;51.224;-2.328;2023-01-24T09:04:24;0.20;95.00
65050;DHT22;52090;51.224;-2.328;2023-01-24T09:08:08;0.20;95.10
65050;DHT22;52090;51.224;-2.328;2023-01-24T09:11:50;0.30;95.20
65050;DHT22;52090;51.224;-2.328;2023-01-24T09:15:33;0.40;95.30
65050;DHT22;52090;51.224;-2.328;2023-01-24T09:19:15;0.50;95.10
65050;DHT22;52090;51.224;-2.328;2023-01-24T09:22:57;0.50;95.00
65050;DHT22;52090;51.224;-2.328;2023-01-24T09:26:39;0.60;95.10
65050;DHT22;52090;51.224;-2.328;2023-01-24T09:30:22;0.60;95.00
65050;DHT22;52090;51.224;-2.328;2023-01-24T09:34:04;0.60;95.10
65050;DHT22;52090;51.224;-2.328;2023-01-24T09:37:46;0.60;95.20
65050;DHT22;52090;51.224;-2.328;2023-01-24T09:49:41;0.80;95.50
65050;DHT22;52090;51.224;-2.328;2023-01-24T09:53:27;0.80;95.20
65050;DHT22;52090;51.224;-2.328;2023-01-24T09:57:24;0.90;95.10
65050;DHT22;52090;51.224;-2.328;2023-01-24T10:01:12;0.90;94.70
65050;DHT22;52090;51.224;-2.328;2023-01-24T10:04:54;0.80;94.90
65050;DHT22;52090;51.224;-2.328;2023-01-24T10:24:31;1.00;94.70
65050;DHT22;52090;51.224;-2.328;2023-01-24T10:28:33;1.00;95.30
65050;DHT22;52090;51.224;-2.328;2023-01-24T10:32:21;1.00;94.90
65050;DHT22;52090;51.224;-2.328;2023-01-24T10:40:15;1.10;94.60
65050;DHT22;52090;51.224;-2.328;2023-01-24T10:44:12;1.20;95.00
65050;DHT22;52090;51.224;-2.328;2023-01-24T10:48:02;1.20;94.70
65050;DHT22;52090;51.224;-2.328;2023-01-24T10:52:13;1.20;94.70
65050;DHT22;52090;51.224;-2.328;2023-01-24T10:56:02;1.20;93.90
65050;DHT22;52090;51.224;-2.328;2023-01-24T10:59:44;1.20;94.30
65050;DHT22;52090;51.224;-2.328;2023-01-24T11:03:29;1.10;94.50
65050;DHT22;52090;51.224;-2.328;2023-01-24T11:07:31;1.10;94.60
65050;DHT22;52090;51.224;-2.328;2023-01-24T11:11:25;1.10;94.30
65050;DHT22;52090;51.224;-2.328;2023-01-24T11:15:31;1.10;94.60
65050;DHT22;52090;51.224;-2.328;2023-01-24T11:19:34;1.00;94.60
65050;DHT22;52090;51.224;-2.328;2023-01-24T11:23:19;1.10;94.70
65050;DHT22;52090;51.224;-2.328;2023-01-24T11:27:21;1.10;95.00
65050;DHT22;52090;51.224;-2.328;2023-01-24T11:31:15;1.20;95.10
65050;DHT22;52090;51.224;-2.328;2023-01-24T11:35:15;1.20;95.30
65050;DHT22;52090;51.224;-2.328;2023-01-24T11:39:13;1.20;95.50
65050;DHT22;52090;51.224;-2.328;2023-01-24T11:43:30;1.30;95.60
65050;DHT22;52090;51.224;-2.328;2023-01-24T11:47:21;1.30;95.70
65050;DHT22;52090;51.224;-2.328;2023-01-24T11:51:18;1.30;95.80
65050;DHT22;52090;51.224;-2.328;2023-01-24T11:59:44;1.40;96.00
65050;DHT22;52090;51.224;-2.328;2023-01-24T12:12:27;1.50;96.30
65050;DHT22;52090;51.224;-2.328;2023-01-24T12:20:56;1.60;96.50
65050;DHT22;52090;51.224;-2.328;2023-01-24T12:24:42;1.60;96.60
65050;DHT22;52090;51.224;-2.328;2023-01-24T12:28:34;1.70;96.60
65050;DHT22;52090;51.224;-2.328;2023-01-24T12:32:25;1.70;96.70
65050;DHT22;52090;51.224;-2.328;2023-01-24T12:36:16;1.80;96.80
65050;DHT22;52090;51.224;-2.328;2023-01-24T12:47:59;1.90;96.90
65050;DHT22;52090;51.224;-2.328;2023-01-24T12:51:53;1.90;97.00
65050;DHT22;52090;51.224;-2.328;2023-01-24T12:59:30;2.00;97.20
65050;DHT22;52090;51.224;-2.328;2023-01-24T13:07:52;2.10;97.30
65050;DHT22;52090;51.224;-2.328;2023-01-24T13:11:42;2.10;97.40
65050;DHT22;52090;51.224;-2.328;2023-01-24T13:16:15;2.10;97.50
65050;DHT22;52090;51.224;-2.328;2023-01-24T13:20:01;2.20;97.60
65050;DHT22;52090;51.224;-2.328;2023-01-24T13:27:45;2.30;97.80
65050;DHT22;52090;51.224;-2.328;2023-01-24T13:35:34;2.40;97.80
65050;DHT22;52090;51.224;-2.328;2023-01-24T13:39:46;2.40;97.80
65050;DHT22;52090;51.224;-2.328;2023-01-24T13:43:55;2.40;97.80
65050;DHT22;52090;51.224;-2.328;2023-01-24T13:47:37;2.40;97.90
65050;DHT22;52090;51.224;-2.328;2023-01-24T13:51:42;2.40;97.90
65050;DHT22;52090;51.224;-2.328;2023-01-24T13:59:12;2.50;98.10
65050;DHT22;52090;51.224;-2.328;2023-01-24T14:06:45;2.60;98.20
65050;DHT22;52090;51.224;-2.328;2023-01-24T14:10:32;2.60;98.10
65050;DHT22;52090;51.224;-2.328;2023-01-24T14:14:28;2.60;97.80
65050;DHT22;52090;51.224;-2.328;2023-01-24T14:18:47;2.50;97.90
65050;DHT22;52090;51.224;-2.328;2023-01-24T14:22:36;2.50;98.00
65050;DHT22;52090;51.224;-2.328;2023-01-24T14:26:21;2.60;98.20
65050;DHT22;52090;51.224;-2.328;2023-01-24T14:34:25;2.50;98.30
65050;DHT22;52090;51.224;-2.328;2023-01-24T14:38:15;2.60;98.30
65050;DHT22;52090;51.224;-2.328;2023-01-24T14:42:05;2.60;98.30
65050;DHT22;52090;51.224;-2.328;2023-01-24T14:45:48;2.60;98.30
65050;DHT22;52090;51.224;-2.328;2023-01-24T14:49:36;2.60;98.30
65050;DHT22;52090;51.224;-2.328;2023-01-24T14:53:26;2.60;98.30
65050;DHT22;52090;51.224;-2.328;2023-01-24T15:01:26;2.60;98.30
65050;DHT22;52090;51.224;-2.328;2023-01-24T15:05:35;2.60;98.30
65050;DHT22;52090;51.224;-2.328;2023-01-24T15:09:17;2.60;98.30
65050;DHT22;52090;51.224;-2.328;2023-01-24T15:13:23;2.60;98.20
65050;DHT22;52090;51.224;-2.328;2023-01-24T15:17:15;2.50;98.20
65050;DHT22;52090;51.224;-2.328;2023-01-24T15:21:01;2.50;98.20
65050;DHT22;52090;51.224;-2.328;2023-01-24T15:24:50;2.50;98.20
65050;DHT22;52090;51.224;-2.328;2023-01-24T15:28:32;2.40;98.10
65050;DHT22;52090;51.224;-2.328;2023-01-24T15:32:49;2.40;98.10
65050;DHT22;52090;51.224;-2.328;2023-01-24T15:36:32;2.40;98.40
65050;DHT22;52090;51.224;-2.328;2023-01-24T15:40:19;2.40;98.30
65050;DHT22;52090;51.224;-2.328;2023-01-24T15:44:05;2.40;98.30
65050;DHT22;52090;51.224;-2.328;2023-01-24T15:48:09;2.40;98.30
65050;DHT22;52090;51.224;-2.328;2023-01-24T15:55:54;2.30;98.40
65050;DHT22;52090;51.224;-2.328;2023-01-24T15:59:48;2.30;98.30
65050;DHT22;52090;51.224;-2.328;2023-01-24T16:03:31;2.30;98.30
65050;DHT22;52090;51.224;-2.328;2023-01-24T16:07:15;2.30;98.30
65050;DHT22;52090;51.224;-2.328;2023-01-24T16:10:59;2.30;98.20
65050;DHT22;52090;51.224;-2.328;2023-01-24T16:14:47;2.30;98.30
65050;DHT22;52090;51.224;-2.328;2023-01-24T16:18:47;2.30;98.30
65050;DHT22;52090;51.224;-2.328;2023-01-24T16:22:29;2.20;98.10
65050;DHT22;52090;51.224;-2.328;2023-01-24T16:26:27;2.20;98.20
65050;DHT22;52090;51.224;-2.328;2023-01-24T16:30:17;2.10;98.20
65050;DHT22;52090;51.224;-2.328;2023-01-24T16:33:59;2.10;98.10
65050;DHT22;52090;51.224;-2.328;2023-01-24T16:37:41;2.00;97.90
65050;DHT22;52090;51.224;-2.328;2023-01-24T16:41:22;2.00;97.90
65050;DHT22;52090;51.224;-2.328;2023-01-24T16:45:05;2.00;97.90
65050;DHT22;52090;51.224;-2.328;2023-01-24T16:48:47;1.90;97.80
65050;DHT22;52090;51.224;-2.328;2023-01-24T16:52:28;1.90;97.70
65050;DHT22;52090;51.224;-2.328;2023-01-24T16:56:11;1.80;97.60
65050;DHT22;52090;51.224;-2.328;2023-01-24T16:59:52;1.80;97.50
65050;DHT22;52090;51.224;-2.328;2023-01-24T17:03:35;1.70;97.40
65050;DHT22;52090;51.224;-2.328;2023-01-24T17:07:17;1.70;97.40
65050;DHT22;52090;51.224;-2.328;2023-01-24T17:11:06;1.60;97.30
65050;DHT22;52090;51.224;-2.328;2023-01-24T17:14:48;1.60;97.30
65050;DHT22;52090;51.224;-2.328;2023-01-24T17:18:31;1.60;97.20
65050;DHT22;52090;51.224;-2.328;2023-01-24T17:22:13;1.50;97.20
65050;DHT22;52090;51.224;-2.328;2023-01-24T17:26:06;1.50;97.20
65050;DHT22;52090;51.224;-2.328;2023-01-24T17:29:48;1.50;97.10
65050;DHT22;52090;51.224;-2.328;2023-01-24T17:33:30;1.50;97.10
65050;DHT22;52090;51.224;-2.328;2023-01-24T17:37:11;1.50;97.00
65050;DHT22;52090;51.224;-2.328;2023-01-24T17:40:53;1.50;97.00
65050;DHT22;52090;51.224;-2.328;2023-01-24T17:44:35;1.50;97.00
65050;DHT22;52090;51.224;-2.328;2023-01-24T17:48:17;1.40;96.90
65050;DHT22;52090;51.224;-2.328;2023-01-24T17:51:59;1.40;96.80
65050;DHT22;52090;51.224;-2.328;2023-01-24T17:55:41;1.40;96.80
65050;DHT22;52090;51.224;-2.328;2023-01-24T17:59:23;1.40;96.80
65050;DHT22;52090;51.224;-2.328;2023-01-24T18:03:05;1.30;96.70
65050;DHT22;52090;51.224;-2.328;2023-01-24T18:06:52;1.30;96.70
65050;DHT22;52090;51.224;-2.328;2023-01-24T18:10:37;1.30;96.70
65050;DHT22;52090;51.224;-2.328;2023-01-24T18:14:19;1.30;96.70
65050;DHT22;52090;51.224;-2.328;2023-01-24T18:18:00;1.30;96.60
65050;DHT22;52090;51.224;-2.328;2023-01-24T18:21:42;1.30;96.50
65050;DHT22;52090;51.224;-2.328;2023-01-24T18:25:24;1.20;96.40
65050;DHT22;52090;51.224;-2.328;2023-01-24T18:29:06;1.20;96.40
65050;DHT22;52090;51.224;-2.328;2023-01-24T18:32:48;1.20;96.40
65050;DHT22;52090;51.224;-2.328;2023-01-24T18:36:30;1.10;96.30
65050;DHT22;52090;51.224;-2.328;2023-01-24T18:40:13;1.20;96.30
65050;DHT22;52090;51.224;-2.328;2023-01-24T18:43:58;1.10;96.30
65050;DHT22;52090;51.224;-2.328;2023-01-24T18:47:40;1.10;96.30
65050;DHT22;52090;51.224;-2.328;2023-01-24T18:51:22;1.10;96.10
65050;DHT22;52090;51.224;-2.328;2023-01-24T18:55:04;1.10;96.10
65050;DHT22;52090;51.224;-2.328;2023-01-24T18:58:46;1.00;96.10
65050;DHT22;52090;51.224;-2.328;2023-01-24T19:02:28;1.00;96.10
65050;DHT22;52090;51.224;-2.328;2023-01-24T19:06:10;1.00;96.00
65050;DHT22;52090;51.224;-2.328;2023-01-24T19:09:52;1.00;95.90
65050;DHT22;52090;51.224;-2.328;2023-01-24T19:13:34;1.00;95.90
65050;DHT22;52090;51.224;-2.328;2023-01-24T19:17:16;1.00;95.80
65050;DHT22;52090;51.224;-2.328;2023-01-24T19:21:09;0.90;95.70
65050;DHT22;52090;51.224;-2.328;2023-01-24T19:24:51;0.90;95.80
65050;DHT22;52090;51.224;-2.328;2023-01-24T19:28:34;0.90;95.70
65050;DHT22;52090;51.224;-2.328;2023-01-24T19:32:15;0.90;95.60
65050;DHT22;52090;51.224;-2.328;2023-01-24T19:35:57;0.80;95.60
65050;DHT22;52090;51.224;-2.328;2023-01-24T19:39:39;0.80;95.60
65050;DHT22;52090;51.224;-2.328;2023-01-24T19:43:21;0.90;95.60
65050;DHT22;52090;51.224;-2.328;2023-01-24T19:47:03;0.80;95.60
65050;DHT22;52090;51.224;-2.328;2023-01-24T19:50:45;0.80;95.60
65050;DHT22;52090;51.224;-2.328;2023-01-24T19:54:28;0.80;95.60
65050;DHT22;52090;51.224;-2.328;2023-01-24T19:58:09;0.80;95.60
65050;DHT22;52090;51.224;-2.328;2023-01-24T20:01:51;0.70;95.60
65050;DHT22;52090;51.224;-2.328;2023-01-24T20:05:36;0.70;95.60
65050;DHT22;52090;51.224;-2.328;2023-01-24T20:09:19;0.80;95.50
65050;DHT22;52090;51.224;-2.328;2023-01-24T20:13:00;0.80;95.50
65050;DHT22;52090;51.224;-2.328;2023-01-24T20:16:44;0.70;95.40
65050;DHT22;52090;51.224;-2.328;2023-01-24T20:20:26;0.70;95.40
65050;DHT22;52090;51.224;-2.328;2023-01-24T20:24:09;0.60;95.30
65050;DHT22;52090;51.224;-2.328;2023-01-24T20:27:52;0.70;95.30
65050;DHT22;52090;51.224;-2.328;2023-01-24T20:31:34;0.60;95.20
65050;DHT22;52090;51.224;-2.328;2023-01-24T20:35:16;0.60;95.20
65050;DHT22;52090;51.224;-2.328;2023-01-24T20:38:58;0.60;95.20
65050;DHT22;52090;51.224;-2.328;2023-01-24T20:42:39;0.60;95.10
65050;DHT22;52090;51.224;-2.328;2023-01-24T20:46:24;0.60;95.10
65050;DHT22;52090;51.224;-2.328;2023-01-24T20:50:06;0.50;95.10
65050;DHT22;52090;51.224;-2.328;2023-01-24T20:53:48;0.50;95.40
65050;DHT22;52090;51.224;-2.328;2023-01-24T20:57:30;0.50;95.00
65050;DHT22;52090;51.224;-2.328;2023-01-24T21:01:14;0.40;95.00
65050;DHT22;52090;51.224;-2.328;2023-01-24T21:04:56;0.50;95.00
65050;DHT22;52090;51.224;-2.328;2023-01-24T21:08:40;0.40;95.00
65050;DHT22;52090;51.224;-2.328;2023-01-24T21:12:22;0.40;95.00
65050;DHT22;52090;51.224;-2.328;2023-01-24T21:16:12;0.40;94.90
65050;DHT22;52090;51.224;-2.328;2023-01-24T21:19:54;0.30;94.90
65050;DHT22;52090;51.224;-2.328;2023-01-24T21:23:36;0.30;94.90
65050;DHT22;52090;51.224;-2.328;2023-01-24T21:27:18;0.30;94.90
65050;DHT22;52090;51.224;-2.328;2023-01-24T21:31:02;0.30;94.90
65050;DHT22;52090;51.224;-2.328;2023-01-24T21:34:44;0.30;94.90
65050;DHT22;52090;51.224;-2.328;2023-01-24T21:38:27;0.30;94.90
65050;DHT22;52090;51.224;-2.328;2023-01-24T21:42:09;0.30;94.90
65050;DHT22;52090;51.224;-2.328;2023-01-24T21:45:51;0.30;94.80
65050;DHT22;52090;51.224;-2.328;2023-01-24T21:49:33;0.30;94.80
65050;DHT22;52090;51.224;-2.328;2023-01-24T21:53:15;0.30;94.70
65050;DHT22;52090;51.224;-2.328;2023-01-24T21:57:16;0.20;94.70
65050;DHT22;52090;51.224;-2.328;2023-01-24T22:01:17;0.20;94.60
65050;DHT22;52090;51.224;-2.328;2023-01-24T22:04:59;0.20;94.60
65050;DHT22;52090;51.224;-2.328;2023-01-24T22:08:41;0.20;94.50
65050;DHT22;52090;51.224;-2.328;2023-01-24T22:12:23;0.10;94.50
65050;DHT22;52090;51.224;-2.328;2023-01-24T22:16:11;0.10;94.50
65050;DHT22;52090;51.224;-2.328;2023-01-24T22:19:55;0.10;94.50
65050;DHT22;52090;51.224;-2.328;2023-01-24T22:23:52;0.00;94.40
65050;DHT22;52090;51.224;-2.328;2023-01-24T22:27:39;0.00;94.40
65050;DHT22;52090;51.224;-2.328;2023-01-24T22:31:21;-0.10;94.20
65050;DHT22;52090;51.224;-2.328;2023-01-24T22:35:03;-0.10;94.20
65050;DHT22;52090;51.224;-2.328;2023-01-24T22:38:45;-0.20;94.10
65050;DHT22;52090;51.224;-2.328;2023-01-24T22:42:27;-0.20;94.20
65050;DHT22;52090;51.224;-2.328;2023-01-24T22:46:09;-0.30;94.10
65050;DHT22;52090;51.224;-2.328;2023-01-24T22:49:50;-0.30;94.20
65050;DHT22;52090;51.224;-2.328;2023-01-24T22:53:33;-0.20;94.20
65050;DHT22;52090;51.224;-2.328;2023-01-24T22:57:15;-0.10;94.20
65050;DHT22;52090;51.224;-2.328;2023-01-24T23:01:03;-0.20;94.00
65050;DHT22;52090;51.224;-2.328;2023-01-24T23:04:45;-0.20;94.00
65050;DHT22;52090;51.224;-2.328;2023-01-24T23:08:27;-0.20;94.00
65050;DHT22;52090;51.224;-2.328;2023-01-24T23:12:09;-0.30;93.90
65050;DHT22;52090;51.224;-2.328;2023-01-24T23:16:13;-0.30;93.90
65050;DHT22;52090;51.224;-2.328;2023-01-24T23:19:56;-0.30;93.90
65050;DHT22;52090;51.224;-2.328;2023-01-24T23:23:56;-0.30;93.90
65050;DHT22;52090;51.224;-2.328;2023-01-24T23:27:38;-0.40;93.90
65050;DHT22;52090;51.224;-2.328;2023-01-24T23:31:21;-0.40;93.80
65050;DHT22;52090;51.224;-2.328;2023-01-24T23:35:06;-0.40;93.80
65050;DHT22;52090;51.224;-2.328;2023-01-24T23:38:50;-0.50;93.70
65050;DHT22;52090;51.224;-2.328;2023-01-24T23:42:32;-0.50;93.70
65050;DHT22;52090;51.224;-2.328;2023-01-24T23:46:14;-0.60;93.70
65050;DHT22;52090;51.224;-2.328;2023-01-24T23:49:56;-0.60;93.70
65050;DHT22;52090;51.224;-2.328;2023-01-24T23:53:39;-0.60;93.80
65050;DHT22;52090;51.224;-2.328;2023-01-24T23:57:24;-0.60;94.10
